sensor_id;sensor_type;location;lat;lon;timestamp;temperature;humidity
19586;DHT22;9939;49.246;9.106;2023-10-13T00:02:10;16.30;99.90
19586;DHT22;9939;49.246;9.106;2023-10-13T00:04:37;16.10;99.90
19586;DHT22;9939;49.246;9.106;2023-10-13T00:07:04;16.20;99.90
19586;DHT22;9939;49.246;9.106;2023-10-13T00:09:35;16.30;99.90
19586;DHT22;9939;49.246;9.106;2023-10-13T00:12:04;16.20;99.90
19586;DHT22;9939;49.246;9.106;2023-10-13T00:14:34;16.20;99.90
19586;DHT22;9939;49.246;9.106;2023-10-13T00:17:02;15.90;99.90
19586;DHT22;9939;49.246;9.106;2023-10-13T00:19:33;15.70;99.90
19586;DHT22;9939;49.246;9.106;2023-10-13T00:22:14;15.60;99.90
19586;DHT22;9939;49.246;9.106;2023-10-13T00:24:43;15.50;99.90
19586;DHT22;9939;49.246;9.106;2023-10-13T00:27:10;15.40;99.90
19586;DHT22;9939;49.246;9.106;2023-10-13T00:29:51;15.40;99.90
19586;DHT22;9939;49.246;9.106;2023-10-13T00:32:30;15.40;99.90
19586;DHT22;9939;49.246;9.106;2023-10-13T00:34:58;15.20;99.90
19586;DHT22;9939;49.246;9.106;2023-10-13T00:37:30;15.20;99.90
19586;DHT22;9939;49.246;9.106;2023-10-13T00:40:07;15.10;99.90
19586;DHT22;9939;49.246;9.106;2023-10-13T00:42:44;15.00;99.90
19586;DHT22;9939;49.246;9.106;2023-10-13T00:45:17;15.10;99.90
19586;DHT22;9939;49.246;9.106;2023-10-13T00:47:44;15.10;99.90
19586;DHT22;9939;49.246;9.106;2023-10-13T00:50:23;14.90;99.90
19586;DHT22;9939;49.246;9.106;2023-10-13T00:52:50;14.80;99.90
19586;DHT22;9939;49.246;9.106;2023-10-13T00:55:18;14.90;99.90
19586;DHT22;9939;49.246;9.106;2023-10-13T00:57:45;14.90;99.90
19586;DHT22;9939;49.246;9.106;2023-10-13T01:00:13;14.90;99.90
19586;DHT22;9939;49.246;9.106;2023-10-13T01:02:52;14.60;99.90
19586;DHT22;9939;49.246;9.106;2023-10-13T01:05:23;14.60;99.90
19586;DHT22;9939;49.246;9.106;2023-10-13T01:07:51;14.60;99.90
19586;DHT22;9939;49.246;9.106;2023-10-13T01:10:27;14.60;99.90
19586;DHT22;9939;49.246;9.106;2023-10-13T01:12:56;14.60;99.90
19586;DHT22;9939;49.246;9.106;2023-10-13T01:15:22;14.60;99.90
19586;DHT22;9939;49.246;9.106;2023-10-13T01:18:09;14.50;99.90
19586;DHT22;9939;49.246;9.106;2023-10-13T01:20:38;14.30;99.90
19586;DHT22;9939;49.246;9.106;2023-10-13T01:23:18;14.50;99.90
19586;DHT22;9939;49.246;9.106;2023-10-13T01:25:46;14.40;99.90
19586;DHT22;9939;49.246;9.106;2023-10-13T01:28:14;14.50;99.90
19586;DHT22;9939;49.246;9.106;2023-10-13T01:30:43;14.30;99.90
19586;DHT22;9939;49.246;9.106;2023-10-13T01:33:11;14.40;99.90
19586;DHT22;9939;49.246;9.106;2023-10-13T01:35:38;14.30;99.90
19586;DHT22;9939;49.246;9.106;2023-10-13T01:38:08;14.10;99.90
19586;DHT22;9939;49.246;9.106;2023-10-13T01:40:36;14.20;99.90
19586;DHT22;9939;49.246;9.106;2023-10-13T01:43:03;14.10;99.90
19586;DHT22;9939;49.246;9.106;2023-10-13T01:45:31;14.00;99.90
19586;DHT22;9939;49.246;9.106;2023-10-13T01:47:58;14.30;99.90
19586;DHT22;9939;49.246;9.106;2023-10-13T01:50:25;14.10;99.90
19586;DHT22;9939;49.246;9.106;2023-10-13T01:52:56;14.00;99.90
19586;DHT22;9939;49.246;9.106;2023-10-13T01:55:39;13.90;99.90
19586;DHT22;9939;49.246;9.106;2023-10-13T01:58:10;13.80;99.90
19586;DHT22;9939;49.246;9.106;2023-10-13T02:00:42;13.90;99.90
19586;DHT22;9939;49.246;9.106;2023-10-13T02:03:10;13.90;99.90
19586;DHT22;9939;49.246;9.106;2023-10-13T02:05:48;13.80;99.90
19586;DHT22;9939;49.246;9.106;2023-10-13T02:08:19;13.70;99.90
19586;DHT22;9939;49.246;9.106;2023-10-13T02:10:54;14.00;99.90
19586;DHT22;9939;49.246;9.106;2023-10-13T02:13:22;13.80;99.90
19586;DHT22;9939;49.246;9.106;2023-10-13T02:15:52;13.70;99.90
19586;DHT22;9939;49.246;9.106;2023-10-13T02:18:20;13.70;99.90
19586;DHT22;9939;49.246;9.106;2023-10-13T02:20:53;13.80;99.90
19586;DHT22;9939;49.246;9.106;2023-10-13T02:23:22;13.60;99.90
19586;DHT22;9939;49.246;9.106;2023-10-13T02:25:49;13.70;99.90
19586;DHT22;9939;49.246;9.106;2023-10-13T02:28:20;13.90;99.90
19586;DHT22;9939;49.246;9.106;2023-10-13T02:30:54;13.80;99.90
19586;DHT22;9939;49.246;9.106;2023-10-13T02:33:24;13.80;99.90
19586;DHT22;9939;49.246;9.106;2023-10-13T02:35:57;13.60;99.90
19586;DHT22;9939;49.246;9.106;2023-10-13T02:38:24;13.80;99.90
19586;DHT22;9939;49.246;9.106;2023-10-13T02:40:59;13.70;99.90
19586;DHT22;9939;49.246;9.106;2023-10-13T02:43:33;13.80;99.90
19586;DHT22;9939;49.246;9.106;2023-10-13T02:46:00;13.70;99.90
19586;DHT22;9939;49.246;9.106;2023-10-13T02:48:28;13.50;99.90
19586;DHT22;9939;49.246;9.106;2023-10-13T02:51:07;13.50;99.90
19586;DHT22;9939;49.246;9.106;2023-10-13T02:53:42;13.30;99.90
19586;DHT22;9939;49.246;9.106;2023-10-13T02:56:13;13.30;99.90
19586;DHT22;9939;49.246;9.106;2023-10-13T02:58:40;13.30;99.90
19586;DHT22;9939;49.246;9.106;2023-10-13T03:01:12;13.40;99.90
19586;DHT22;9939;49.246;9.106;2023-10-13T03:03:50;13.40;99.90
19586;DHT22;9939;49.246;9.106;2023-10-13T03:06:18;13.50;99.90
19586;DHT22;9939;49.246;9.106;2023-10-13T03:08:48;13.50;99.90
19586;DHT22;9939;49.246;9.106;2023-10-13T03:11:15;13.50;99.90
19586;DHT22;9939;49.246;9.106;2023-10-13T03:13:48;13.60;99.90
19586;DHT22;9939;49.246;9.106;2023-10-13T03:16:17;13.60;99.90
19586;DHT22;9939;49.246;9.106;2023-10-13T03:18:46;13.80;99.90
19586;DHT22;9939;49.246;9.106;2023-10-13T03:21:23;13.90;99.90
19586;DHT22;9939;49.246;9.106;2023-10-13T03:23:59;13.90;99.90
19586;DHT22;9939;49.246;9.106;2023-10-13T03:26:40;14.00;99.90
19586;DHT22;9939;49.246;9.106;2023-10-13T03:29:11;14.00;99.90
19586;DHT22;9939;49.246;9.106;2023-10-13T03:31:40;14.00;99.90
19586;DHT22;9939;49.246;9.106;2023-10-13T03:34:07;14.10;99.90
19586;DHT22;9939;49.246;9.106;2023-10-13T03:36:39;13.90;99.90
19586;DHT22;9939;49.246;9.106;2023-10-13T03:39:24;13.90;99.90
19586;DHT22;9939;49.246;9.106;2023-10-13T03:41:56;13.90;99.90
19586;DHT22;9939;49.246;9.106;2023-10-13T03:44:23;13.80;99.90
19586;DHT22;9939;49.246;9.106;2023-10-13T03:46:56;13.90;99.90
19586;DHT22;9939;49.246;9.106;2023-10-13T03:49:23;14.00;99.90
19586;DHT22;9939;49.246;9.106;2023-10-13T03:51:51;14.10;99.90
19586;DHT22;9939;49.246;9.106;2023-10-13T03:54:21;14.00;99.90
19586;DHT22;9939;49.246;9.106;2023-10-13T03:56:48;14.10;99.90
19586;DHT22;9939;49.246;9.106;2023-10-13T03:59:18;13.90;99.90
19586;DHT22;9939;49.246;9.106;2023-10-13T04:01:47;14.20;99.90
19586;DHT22;9939;49.246;9.106;2023-10-13T04:04:29;14.00;99.90
19586;DHT22;9939;49.246;9.106;2023-10-13T04:07:14;14.00;99.90
19586;DHT22;9939;49.246;9.106;2023-10-13T04:10:01;14.00;99.90
19586;DHT22;9939;49.246;9.106;2023-10-13T04:13:00;13.90;99.90
19586;DHT22;9939;49.246;9.106;2023-10-13T04:15:45;13.90;99.90
19586;DHT22;9939;49.246;9.106;2023-10-13T04:18:31;13.60;99.90
19586;DHT22;9939;49.246;9.106;2023-10-13T04:21:13;13.60;99.90
19586;DHT22;9939;49.246;9.106;2023-10-13T04:24:10;13.70;99.90
19586;DHT22;9939;49.246;9.106;2023-10-13T04:26:55;13.50;99.90
19586;DHT22;9939;49.246;9.106;2023-10-13T04:29:41;13.40;99.90
19586;DHT22;9939;49.246;9.106;2023-10-13T04:32:26;13.40;99.90
19586;DHT22;9939;49.246;9.106;2023-10-13T04:34:56;13.60;99.90
19586;DHT22;9939;49.246;9.106;2023-10-13T04:37:36;13.60;99.90
19586;DHT22;9939;49.246;9.106;2023-10-13T04:40:23;13.50;99.90
19586;DHT22;9939;49.246;9.106;2023-10-13T04:42:55;13.60;99.90
19586;DHT22;9939;49.246;9.106;2023-10-13T04:45:24;13.40;99.90
19586;DHT22;9939;49.246;9.106;2023-10-13T04:48:05;13.40;99.90
19586;DHT22;9939;49.246;9.106;2023-10-13T04:51:08;13.30;99.90
19586;DHT22;9939;49.246;9.106;2023-10-13T04:54:00;13.30;99.90
19586;DHT22;9939;49.246;9.106;2023-10-13T04:56:30;13.40;99.90
19586;DHT22;9939;49.246;9.106;2023-10-13T04:59:16;13.60;99.90
19586;DHT22;9939;49.246;9.106;2023-10-13T05:02:02;13.80;99.90
19586;DHT22;9939;49.246;9.106;2023-10-13T05:04:48;13.70;99.90
19586;DHT22;9939;49.246;9.106;2023-10-13T05:07:47;13.60;99.90
19586;DHT22;9939;49.246;9.106;2023-10-13T05:10:33;13.70;99.90
19586;DHT22;9939;49.246;9.106;2023-10-13T05:13:18;13.80;99.90
19586;DHT22;9939;49.246;9.106;2023-10-13T05:16:04;13.70;99.90
19586;DHT22;9939;49.246;9.106;2023-10-13T05:18:49;13.50;99.90
19586;DHT22;9939;49.246;9.106;2023-10-13T05:21:34;13.50;99.90
19586;DHT22;9939;49.246;9.106;2023-10-13T05:24:23;13.30;99.90
19586;DHT22;9939;49.246;9.106;2023-10-13T05:27:08;13.40;99.90
19586;DHT22;9939;49.246;9.106;2023-10-13T05:29:53;13.30;99.90
19586;DHT22;9939;49.246;9.106;2023-10-13T05:32:39;13.30;99.90
19586;DHT22;9939;49.246;9.106;2023-10-13T05:35:25;13.40;99.90
19586;DHT22;9939;49.246;9.106;2023-10-13T05:38:10;13.20;99.90
19586;DHT22;9939;49.246;9.106;2023-10-13T05:41:00;13.00;99.90
19586;DHT22;9939;49.246;9.106;2023-10-13T05:43:50;13.20;99.90
19586;DHT22;9939;49.246;9.106;2023-10-13T05:46:35;13.30;99.90
19586;DHT22;9939;49.246;9.106;2023-10-13T05:49:06;13.20;99.90
19586;DHT22;9939;49.246;9.106;2023-10-13T05:51:36;13.00;99.90
19586;DHT22;9939;49.246;9.106;2023-10-13T05:54:03;13.30;99.90
19586;DHT22;9939;49.246;9.106;2023-10-13T05:56:42;13.20;99.90
19586;DHT22;9939;49.246;9.106;2023-10-13T05:59:28;13.20;99.90
19586;DHT22;9939;49.246;9.106;2023-10-13T06:02:17;13.10;99.90
19586;DHT22;9939;49.246;9.106;2023-10-13T06:05:03;13.10;99.90
19586;DHT22;9939;49.246;9.106;2023-10-13T06:07:48;13.00;99.90
19586;DHT22;9939;49.246;9.106;2023-10-13T06:10:33;13.10;99.90
19586;DHT22;9939;49.246;9.106;2023-10-13T06:13:19;13.30;99.90
19586;DHT22;9939;49.246;9.106;2023-10-13T06:16:05;13.20;99.90
19586;DHT22;9939;49.246;9.106;2023-10-13T06:18:50;13.20;99.90
19586;DHT22;9939;49.246;9.106;2023-10-13T06:21:35;13.50;99.90
19586;DHT22;9939;49.246;9.106;2023-10-13T06:24:21;13.50;99.90
19586;DHT22;9939;49.246;9.106;2023-10-13T06:27:06;13.50;99.90
19586;DHT22;9939;49.246;9.106;2023-10-13T06:29:51;13.70;99.90
19586;DHT22;9939;49.246;9.106;2023-10-13T06:32:20;13.80;99.90
19586;DHT22;9939;49.246;9.106;2023-10-13T06:34:47;13.80;99.90
19586;DHT22;9939;49.246;9.106;2023-10-13T06:37:14;13.90;99.90
19586;DHT22;9939;49.246;9.106;2023-10-13T06:39:52;13.90;99.90
19586;DHT22;9939;49.246;9.106;2023-10-13T06:42:23;14.20;99.90
19586;DHT22;9939;49.246;9.106;2023-10-13T06:44:54;14.00;99.90
19586;DHT22;9939;49.246;9.106;2023-10-13T06:47:21;14.10;99.90
19586;DHT22;9939;49.246;9.106;2023-10-13T06:49:48;14.10;99.90
19586;DHT22;9939;49.246;9.106;2023-10-13T06:52:18;14.20;99.90
19586;DHT22;9939;49.246;9.106;2023-10-13T06:54:44;14.50;99.90
19586;DHT22;9939;49.246;9.106;2023-10-13T06:57:12;14.80;99.90
19586;DHT22;9939;49.246;9.106;2023-10-13T06:59:47;14.70;99.90
19586;DHT22;9939;49.246;9.106;2023-10-13T07:02:14;14.90;99.90
19586;DHT22;9939;49.246;9.106;2023-10-13T07:04:54;15.00;99.90
19586;DHT22;9939;49.246;9.106;2023-10-13T07:07:34;15.40;99.90
19586;DHT22;9939;49.246;9.106;2023-10-13T07:10:03;15.60;99.90
19586;DHT22;9939;49.246;9.106;2023-10-13T07:12:34;16.00;99.90
19586;DHT22;9939;49.246;9.106;2023-10-13T07:15:01;16.00;99.90
19586;DHT22;9939;49.246;9.106;2023-10-13T07:17:46;15.90;99.90
19586;DHT22;9939;49.246;9.106;2023-10-13T07:20:14;15.80;99.90
19586;DHT22;9939;49.246;9.106;2023-10-13T07:22:42;16.00;99.90
19586;DHT22;9939;49.246;9.106;2023-10-13T07:25:22;16.40;99.90
19586;DHT22;9939;49.246;9.106;2023-10-13T07:27:53;17.10;99.90
19586;DHT22;9939;49.246;9.106;2023-10-13T07:30:20;18.20;99.90
19586;DHT22;9939;49.246;9.106;2023-10-13T07:32:53;18.70;99.90
19586;DHT22;9939;49.246;9.106;2023-10-13T07:35:21;19.60;99.90
19586;DHT22;9939;49.246;9.106;2023-10-13T07:37:52;20.00;99.90
19586;DHT22;9939;49.246;9.106;2023-10-13T07:40:20;20.80;99.90
19586;DHT22;9939;49.246;9.106;2023-10-13T07:42:54;21.10;99.90
19586;DHT22;9939;49.246;9.106;2023-10-13T07:45:36;22.40;99.90
19586;DHT22;9939;49.246;9.106;2023-10-13T07:48:04;22.80;99.90
19586;DHT22;9939;49.246;9.106;2023-10-13T07:50:43;23.00;99.90
19586;DHT22;9939;49.246;9.106;2023-10-13T07:53:12;22.90;99.90
19586;DHT22;9939;49.246;9.106;2023-10-13T07:55:51;23.30;99.90
19586;DHT22;9939;49.246;9.106;2023-10-13T07:58:29;23.00;99.90
19586;DHT22;9939;49.246;9.106;2023-10-13T08:00:58;23.10;99.90
19586;DHT22;9939;49.246;9.106;2023-10-13T08:03:25;23.30;99.90
19586;DHT22;9939;49.246;9.106;2023-10-13T08:06:01;23.80;99.90
19586;DHT22;9939;49.246;9.106;2023-10-13T08:08:37;24.10;99.90
19586;DHT22;9939;49.246;9.106;2023-10-13T08:11:11;24.70;99.90
19586;DHT22;9939;49.246;9.106;2023-10-13T08:13:38;25.70;99.90
19586;DHT22;9939;49.246;9.106;2023-10-13T08:16:28;26.10;99.90
19586;DHT22;9939;49.246;9.106;2023-10-13T08:19:14;26.20;99.90
19586;DHT22;9939;49.246;9.106;2023-10-13T08:21:42;26.60;99.90
19586;DHT22;9939;49.246;9.106;2023-10-13T08:24:16;26.60;99.90
19586;DHT22;9939;49.246;9.106;2023-10-13T08:26:43;27.80;99.90
19586;DHT22;9939;49.246;9.106;2023-10-13T08:29:45;26.90;99.90
19586;DHT22;9939;49.246;9.106;2023-10-13T08:32:22;27.60;99.90
19586;DHT22;9939;49.246;9.106;2023-10-13T08:35:03;27.80;99.90
19586;DHT22;9939;49.246;9.106;2023-10-13T08:37:30;28.50;99.90
19586;DHT22;9939;49.246;9.106;2023-10-13T08:40:00;29.10;99.90
19586;DHT22;9939;49.246;9.106;2023-10-13T08:42:46;29.40;99.90
19586;DHT22;9939;49.246;9.106;2023-10-13T08:45:16;28.70;99.90
19586;DHT22;9939;49.246;9.106;2023-10-13T08:47:53;28.60;99.90
19586;DHT22;9939;49.246;9.106;2023-10-13T08:50:21;27.40;99.90
19586;DHT22;9939;49.246;9.106;2023-10-13T08:53:07;28.80;99.90
19586;DHT22;9939;49.246;9.106;2023-10-13T08:55:53;30.00;99.90
19586;DHT22;9939;49.246;9.106;2023-10-13T08:58:32;29.50;99.90
19586;DHT22;9939;49.246;9.106;2023-10-13T09:01:23;29.10;99.90
19586;DHT22;9939;49.246;9.106;2023-10-13T09:04:09;30.60;99.90
19586;DHT22;9939;49.246;9.106;2023-10-13T09:06:48;32.20;99.30
19586;DHT22;9939;49.246;9.106;2023-10-13T09:09:27;31.50;98.80
19586;DHT22;9939;49.246;9.106;2023-10-13T09:12:02;31.10;98.10
19586;DHT22;9939;49.246;9.106;2023-10-13T09:14:38;30.70;98.40
19586;DHT22;9939;49.246;9.106;2023-10-13T09:17:10;30.50;98.10
19586;DHT22;9939;49.246;9.106;2023-10-13T09:20:00;30.60;98.50
19586;DHT22;9939;49.246;9.106;2023-10-13T09:22:54;30.70;98.50
19586;DHT22;9939;49.246;9.106;2023-10-13T09:25:34;29.20;99.80
19586;DHT22;9939;49.246;9.106;2023-10-13T09:28:11;29.60;99.90
19586;DHT22;9939;49.246;9.106;2023-10-13T09:30:42;29.20;99.90
19586;DHT22;9939;49.246;9.106;2023-10-13T09:33:09;29.20;99.90
19586;DHT22;9939;49.246;9.106;2023-10-13T09:35:43;30.30;98.50
19586;DHT22;9939;49.246;9.106;2023-10-13T09:38:09;31.50;96.70
19586;DHT22;9939;49.246;9.106;2023-10-13T09:40:38;30.20;98.10
19586;DHT22;9939;49.246;9.106;2023-10-13T09:43:05;31.90;96.30
19586;DHT22;9939;49.246;9.106;2023-10-13T09:45:34;31.00;96.60
19586;DHT22;9939;49.246;9.106;2023-10-13T09:48:10;30.10;97.00
19586;DHT22;9939;49.246;9.106;2023-10-13T09:50:44;30.20;97.50
19586;DHT22;9939;49.246;9.106;2023-10-13T09:53:12;30.80;96.50
19586;DHT22;9939;49.246;9.106;2023-10-13T09:55:45;33.20;94.40
19586;DHT22;9939;49.246;9.106;2023-10-13T09:58:13;34.00;93.30
19586;DHT22;9939;49.246;9.106;2023-10-13T10:01:15;34.40;91.90
19586;DHT22;9939;49.246;9.106;2023-10-13T10:03:45;33.90;91.50
19586;DHT22;9939;49.246;9.106;2023-10-13T10:06:21;34.50;91.50
19586;DHT22;9939;49.246;9.106;2023-10-13T10:09:03;35.70;90.00
19586;DHT22;9939;49.246;9.106;2023-10-13T10:17:08;34.00;90.50
19586;DHT22;9939;49.246;9.106;2023-10-13T10:19:48;33.90;90.00
19586;DHT22;9939;49.246;9.106;2023-10-13T10:22:24;33.80;90.80
19586;DHT22;9939;49.246;9.106;2023-10-13T10:25:04;34.80;88.80
19586;DHT22;9939;49.246;9.106;2023-10-13T10:27:57;33.50;90.80
19586;DHT22;9939;49.246;9.106;2023-10-13T10:30:28;34.10;89.70
19586;DHT22;9939;49.246;9.106;2023-10-13T10:32:56;34.50;89.20
19586;DHT22;9939;49.246;9.106;2023-10-13T10:35:39;32.90;90.80
19586;DHT22;9939;49.246;9.106;2023-10-13T10:38:24;34.80;89.50
19586;DHT22;9939;49.246;9.106;2023-10-13T10:41:02;35.00;87.80
19586;DHT22;9939;49.246;9.106;2023-10-13T10:43:38;33.00;90.30
19586;DHT22;9939;49.246;9.106;2023-10-13T10:46:15;33.00;91.00
19586;DHT22;9939;49.246;9.106;2023-10-13T10:48:45;34.70;87.50
19586;DHT22;9939;49.246;9.106;2023-10-13T10:51:13;34.00;88.00
19586;DHT22;9939;49.246;9.106;2023-10-13T10:53:52;34.30;88.50
19586;DHT22;9939;49.246;9.106;2023-10-13T10:56:23;34.00;88.40
19586;DHT22;9939;49.246;9.106;2023-10-13T10:59:05;34.90;87.20
19586;DHT22;9939;49.246;9.106;2023-10-13T11:01:32;35.80;83.90
19586;DHT22;9939;49.246;9.106;2023-10-13T11:04:06;36.40;83.60
19586;DHT22;9939;49.246;9.106;2023-10-13T11:06:50;36.40;82.20
19586;DHT22;9939;49.246;9.106;2023-10-13T11:09:24;37.30;82.30
19586;DHT22;9939;49.246;9.106;2023-10-13T11:14:30;37.50;78.60
19586;DHT22;9939;49.246;9.106;2023-10-13T11:16:57;37.20;79.10
19586;DHT22;9939;49.246;9.106;2023-10-13T11:19:38;37.00;79.60
19586;DHT22;9939;49.246;9.106;2023-10-13T11:22:11;37.30;78.60
19586;DHT22;9939;49.246;9.106;2023-10-13T11:24:56;37.70;78.70
19586;DHT22;9939;49.246;9.106;2023-10-13T11:27:32;37.50;77.90
19586;DHT22;9939;49.246;9.106;2023-10-13T11:30:11;38.30;77.60
19586;DHT22;9939;49.246;9.106;2023-10-13T11:32:41;37.60;76.30
19586;DHT22;9939;49.246;9.106;2023-10-13T11:35:11;37.40;76.80
19586;DHT22;9939;49.246;9.106;2023-10-13T11:37:47;36.40;76.30
19586;DHT22;9939;49.246;9.106;2023-10-13T11:40:23;35.20;76.80
19586;DHT22;9939;49.246;9.106;2023-10-13T11:43:09;34.50;77.60
19586;DHT22;9939;49.246;9.106;2023-10-13T11:45:40;33.80;79.50
19586;DHT22;9939;49.246;9.106;2023-10-13T11:48:44;34.70;79.20
19586;DHT22;9939;49.246;9.106;2023-10-13T11:51:13;35.20;77.30
19586;DHT22;9939;49.246;9.106;2023-10-13T11:53:44;34.50;78.40
19586;DHT22;9939;49.246;9.106;2023-10-13T11:56:20;34.30;78.90
19586;DHT22;9939;49.246;9.106;2023-10-13T11:58:49;34.50;78.80
19586;DHT22;9939;49.246;9.106;2023-10-13T12:01:17;34.00;78.90
19586;DHT22;9939;49.246;9.106;2023-10-13T12:03:44;33.80;79.30
19586;DHT22;9939;49.246;9.106;2023-10-13T12:06:31;33.80;79.10
19586;DHT22;9939;49.246;9.106;2023-10-13T12:09:07;34.40;78.40
19586;DHT22;9939;49.246;9.106;2023-10-13T12:11:55;34.70;78.20
19586;DHT22;9939;49.246;9.106;2023-10-13T12:14:26;34.70;77.10
19586;DHT22;9939;49.246;9.106;2023-10-13T12:16:58;34.60;77.70
19586;DHT22;9939;49.246;9.106;2023-10-13T12:19:31;34.90;77.90
19586;DHT22;9939;49.246;9.106;2023-10-13T12:21:58;34.80;76.90
19586;DHT22;9939;49.246;9.106;2023-10-13T12:24:30;34.90;73.40
19586;DHT22;9939;49.246;9.106;2023-10-13T12:27:07;35.30;73.20
19586;DHT22;9939;49.246;9.106;2023-10-13T12:29:46;34.80;72.70
19586;DHT22;9939;49.246;9.106;2023-10-13T12:32:13;34.60;72.30
19586;DHT22;9939;49.246;9.106;2023-10-13T12:34:41;34.50;73.30
19586;DHT22;9939;49.246;9.106;2023-10-13T12:37:29;34.80;71.50
19586;DHT22;9939;49.246;9.106;2023-10-13T12:40:03;35.50;70.70
19586;DHT22;9939;49.246;9.106;2023-10-13T12:42:49;36.80;68.60
19586;DHT22;9939;49.246;9.106;2023-10-13T12:45:41;36.50;68.60
19586;DHT22;9939;49.246;9.106;2023-10-13T12:48:27;36.90;68.50
19586;DHT22;9939;49.246;9.106;2023-10-13T12:51:13;36.80;68.40
19586;DHT22;9939;49.246;9.106;2023-10-13T12:53:55;36.60;68.30
19586;DHT22;9939;49.246;9.106;2023-10-13T12:56:22;35.10;70.00
19586;DHT22;9939;49.246;9.106;2023-10-13T12:58:52;34.50;70.50
19586;DHT22;9939;49.246;9.106;2023-10-13T13:01:20;33.80;71.00
19586;DHT22;9939;49.246;9.106;2023-10-13T13:03:47;34.50;70.80
19586;DHT22;9939;49.246;9.106;2023-10-13T13:06:19;37.30;69.00
19586;DHT22;9939;49.246;9.106;2023-10-13T13:11:18;36.50;67.30
19586;DHT22;9939;49.246;9.106;2023-10-13T13:13:45;37.60;65.90
19586;DHT22;9939;49.246;9.106;2023-10-13T13:16:15;35.80;66.00
19586;DHT22;9939;49.246;9.106;2023-10-13T13:18:45;34.60;68.20
19586;DHT22;9939;49.246;9.106;2023-10-13T13:21:12;34.90;68.00
19586;DHT22;9939;49.246;9.106;2023-10-13T13:23:39;34.80;67.70
19586;DHT22;9939;49.246;9.106;2023-10-13T13:26:11;34.00;69.60
19586;DHT22;9939;49.246;9.106;2023-10-13T13:28:44;33.60;70.50
19586;DHT22;9939;49.246;9.106;2023-10-13T13:31:12;33.40;71.10
19586;DHT22;9939;49.246;9.106;2023-10-13T13:33:39;33.20;72.00
19586;DHT22;9939;49.246;9.106;2023-10-13T13:36:11;32.50;73.50
19586;DHT22;9939;49.246;9.106;2023-10-13T13:38:43;32.00;75.10
19586;DHT22;9939;49.246;9.106;2023-10-13T13:41:13;31.70;73.90
19586;DHT22;9939;49.246;9.106;2023-10-13T13:43:50;32.10;74.80
19586;DHT22;9939;49.246;9.106;2023-10-13T13:46:18;31.20;75.10
19586;DHT22;9939;49.246;9.106;2023-10-13T13:48:45;30.70;75.70
19586;DHT22;9939;49.246;9.106;2023-10-13T13:51:14;30.60;76.70
19586;DHT22;9939;49.246;9.106;2023-10-13T13:53:42;31.50;75.60
19586;DHT22;9939;49.246;9.106;2023-10-13T13:56:12;30.90;75.20
19586;DHT22;9939;49.246;9.106;2023-10-13T13:58:46;30.80;77.00
19586;DHT22;9939;49.246;9.106;2023-10-13T14:01:13;31.00;75.90
19586;DHT22;9939;49.246;9.106;2023-10-13T14:03:52;30.40;76.80
19586;DHT22;9939;49.246;9.106;2023-10-13T14:06:23;31.80;74.50
19586;DHT22;9939;49.246;9.106;2023-10-13T14:08:51;34.10;71.80
19586;DHT22;9939;49.246;9.106;2023-10-13T14:11:23;35.60;69.60
19586;DHT22;9939;49.246;9.106;2023-10-13T14:16:53;38.40;66.20
19586;DHT22;9939;49.246;9.106;2023-10-13T14:19:20;37.90;65.50
19586;DHT22;9939;49.246;9.106;2023-10-13T14:21:56;37.70;64.70
19586;DHT22;9939;49.246;9.106;2023-10-13T14:24:23;36.20;65.50
19586;DHT22;9939;49.246;9.106;2023-10-13T14:27:00;37.10;65.80
19586;DHT22;9939;49.246;9.106;2023-10-13T14:29:39;38.10;64.80
19586;DHT22;9939;49.246;9.106;2023-10-13T14:32:09;36.50;65.10
19586;DHT22;9939;49.246;9.106;2023-10-13T14:34:39;35.00;66.50
19586;DHT22;9939;49.246;9.106;2023-10-13T14:37:06;33.90;67.70
19586;DHT22;9939;49.246;9.106;2023-10-13T14:39:33;32.80;69.40
19586;DHT22;9939;49.246;9.106;2023-10-13T14:42:02;31.90;70.70
19586;DHT22;9939;49.246;9.106;2023-10-13T14:44:30;31.60;70.70
19586;DHT22;9939;49.246;9.106;2023-10-13T14:46:57;31.10;72.40
19586;DHT22;9939;49.246;9.106;2023-10-13T14:49:24;30.80;72.40
19586;DHT22;9939;49.246;9.106;2023-10-13T14:51:51;30.50;73.10
19586;DHT22;9939;49.246;9.106;2023-10-13T14:54:18;30.10;74.40
19586;DHT22;9939;49.246;9.106;2023-10-13T14:56:51;29.80;75.30
19586;DHT22;9939;49.246;9.106;2023-10-13T14:59:21;29.50;75.90
19586;DHT22;9939;49.246;9.106;2023-10-13T15:01:48;29.60;75.70
19586;DHT22;9939;49.246;9.106;2023-10-13T15:04:16;29.40;75.70
19586;DHT22;9939;49.246;9.106;2023-10-13T15:06:43;29.40;76.40
19586;DHT22;9939;49.246;9.106;2023-10-13T15:09:10;29.30;76.40
19586;DHT22;9939;49.246;9.106;2023-10-13T15:11:37;28.90;77.50
19586;DHT22;9939;49.246;9.106;2023-10-13T15:14:15;28.60;78.20
19586;DHT22;9939;49.246;9.106;2023-10-13T15:16:41;28.60;78.20
19586;DHT22;9939;49.246;9.106;2023-10-13T15:19:10;28.60;78.50
19586;DHT22;9939;49.246;9.106;2023-10-13T15:21:37;28.40;77.80
19586;DHT22;9939;49.246;9.106;2023-10-13T15:24:04;28.40;78.10
19586;DHT22;9939;49.246;9.106;2023-10-13T15:26:51;28.40;78.10
19586;DHT22;9939;49.246;9.106;2023-10-13T15:29:23;28.40;78.10
19586;DHT22;9939;49.246;9.106;2023-10-13T15:31:56;28.30;77.30
19586;DHT22;9939;49.246;9.106;2023-10-13T15:34:27;28.30;76.80
19586;DHT22;9939;49.246;9.106;2023-10-13T15:36:54;28.30;76.70
19586;DHT22;9939;49.246;9.106;2023-10-13T15:39:22;28.30;78.00
19586;DHT22;9939;49.246;9.106;2023-10-13T15:41:55;28.10;77.80
19586;DHT22;9939;49.246;9.106;2023-10-13T15:44:26;27.90;78.80
19586;DHT22;9939;49.246;9.106;2023-10-13T15:46:56;27.60;79.10
19586;DHT22;9939;49.246;9.106;2023-10-13T15:49:26;27.40;79.80
19586;DHT22;9939;49.246;9.106;2023-10-13T15:51:55;27.20;80.40
19586;DHT22;9939;49.246;9.106;2023-10-13T15:54:22;27.00;81.00
19586;DHT22;9939;49.246;9.106;2023-10-13T15:56:50;26.90;81.50
19586;DHT22;9939;49.246;9.106;2023-10-13T15:59:17;26.70;82.00
19586;DHT22;9939;49.246;9.106;2023-10-13T16:01:44;26.30;83.00
19586;DHT22;9939;49.246;9.106;2023-10-13T16:04:14;26.30;83.40
19586;DHT22;9939;49.246;9.106;2023-10-13T16:06:42;26.10;84.20
19586;DHT22;9939;49.246;9.106;2023-10-13T16:09:13;25.90;84.40
19586;DHT22;9939;49.246;9.106;2023-10-13T16:11:44;25.80;84.80
19586;DHT22;9939;49.246;9.106;2023-10-13T16:14:12;25.50;85.10
19586;DHT22;9939;49.246;9.106;2023-10-13T16:16:44;25.30;85.50
19586;DHT22;9939;49.246;9.106;2023-10-13T16:19:13;25.20;85.20
19586;DHT22;9939;49.246;9.106;2023-10-13T16:21:40;25.30;85.60
19586;DHT22;9939;49.246;9.106;2023-10-13T16:24:08;25.10;85.50
19586;DHT22;9939;49.246;9.106;2023-10-13T16:26:37;25.10;86.20
19586;DHT22;9939;49.246;9.106;2023-10-13T16:29:07;24.90;85.80
19586;DHT22;9939;49.246;9.106;2023-10-13T16:31:34;24.70;86.20
19586;DHT22;9939;49.246;9.106;2023-10-13T16:34:01;24.50;88.30
19586;DHT22;9939;49.246;9.106;2023-10-13T16:36:28;24.20;89.70
19586;DHT22;9939;49.246;9.106;2023-10-13T16:38:57;23.90;91.20
19586;DHT22;9939;49.246;9.106;2023-10-13T16:41:25;23.70;93.70
19586;DHT22;9939;49.246;9.106;2023-10-13T16:43:53;23.30;94.20